createdAt,value
2023-03-06T00:01:33.422Z,4.88
2023-03-06T00:04:08.363Z,4.53
2023-03-06T00:06:41.707Z,5.70
2023-03-06T00:09:14.640Z,5.22
2023-03-06T00:11:47.442Z,5.10
2023-03-06T00:14:21.613Z,6.10
2023-03-06T00:16:55.270Z,5.68
2023-03-06T00:19:28.788Z,5.00
2023-03-06T00:22:03.124Z,5.70
2023-03-06T00:24:36.259Z,4.35
2023-03-06T00:27:09.338Z,6.00
2023-03-06T00:29:44.700Z,5.60
2023-03-06T00:32:18.461Z,6.60
2023-03-06T00:34:52.187Z,5.13
2023-03-06T00:37:25.945Z,5.25
2023-03-06T00:39:59.834Z,5.60
2023-03-06T00:42:32.699Z,5.05
2023-03-06T00:45:08.487Z,5.65
2023-03-06T00:47:41.689Z,5.10
2023-03-06T00:50:14.486Z,5.35
2023-03-06T00:52:47.343Z,5.15
2023-03-06T00:55:20.254Z,5.03
2023-03-06T00:57:53.098Z,5.10
2023-03-06T01:00:27.430Z,6.10
2023-03-06T01:03:00.615Z,6.10
2023-03-06T01:05:36.457Z,5.75
2023-03-06T01:08:09.316Z,5.63
2023-03-06T01:10:42.340Z,5.60
2023-03-06T01:13:15.470Z,5.93
2023-03-06T01:15:49.750Z,6.20
2023-03-06T01:18:22.561Z,5.88
2023-03-06T01:20:55.381Z,6.47
2023-03-06T01:23:28.203Z,5.95
2023-03-06T01:26:01.923Z,5.00
2023-03-06T01:28:35.361Z,5.28
2023-03-06T01:31:11.464Z,6.03
2023-03-06T01:33:44.251Z,5.38
2023-03-06T01:36:17.537Z,7.00
2023-03-06T01:38:51.371Z,4.70
2023-03-06T01:41:24.368Z,5.40
2023-03-06T01:43:57.187Z,5.30
2023-03-06T01:46:37.858Z,5.82
2023-03-06T01:49:19.400Z,5.72
2023-03-06T01:51:56.727Z,5.75
2023-03-06T01:54:33.567Z,5.35
2023-03-06T01:57:10.784Z,5.53
2023-03-06T01:59:44.020Z,6.18
2023-03-06T02:02:18.592Z,5.78
2023-03-06T02:04:51.628Z,7.03
2023-03-06T02:07:24.667Z,6.05
2023-03-06T02:09:57.469Z,5.45
2023-03-06T02:12:30.841Z,6.75
2023-03-06T02:15:04.308Z,6.15
2023-03-06T02:17:38.641Z,4.25
2023-03-06T02:20:14.653Z,5.60
2023-03-06T02:22:54.880Z,6.60
2023-03-06T02:25:39.584Z,4.95
2023-03-06T02:28:14.427Z,5.95
2023-03-06T02:30:49.155Z,6.00
2023-03-06T02:33:25.637Z,5.93
2023-03-06T02:36:00.996Z,6.25
2023-03-06T02:38:38.647Z,6.30
2023-03-06T02:41:13.220Z,6.53
2023-03-06T02:43:49.035Z,6.35
2023-03-06T02:46:22.017Z,5.88
2023-03-06T02:48:54.913Z,6.18
2023-03-06T02:51:28.293Z,5.97
2023-03-06T02:54:01.147Z,5.32
2023-03-06T02:56:35.361Z,6.63
2023-03-06T02:59:08.648Z,6.65
2023-03-06T03:01:41.634Z,6.13
2023-03-06T03:04:14.596Z,6.60
2023-03-06T03:06:47.429Z,6.38
2023-03-06T03:09:20.848Z,7.40
2023-03-06T03:11:55.122Z,5.97
2023-03-06T03:14:28.105Z,7.05
2023-03-06T03:17:02.398Z,5.80
2023-03-06T03:19:36.236Z,6.72
2023-03-06T03:22:09.130Z,6.20
2023-03-06T03:24:42.321Z,6.45
2023-03-06T03:27:17.382Z,6.43
2023-03-06T03:29:50.297Z,6.88
2023-03-06T03:32:23.278Z,6.43
2023-03-06T03:34:57.006Z,7.90
2023-03-06T03:37:31.430Z,6.70
2023-03-06T03:40:06.566Z,6.40
2023-03-06T03:42:41.237Z,6.32
2023-03-06T03:45:15.158Z,6.97
2023-03-06T03:47:48.088Z,7.60
2023-03-06T03:50:21.094Z,6.45
2023-03-06T03:52:54.072Z,6.57
2023-03-06T03:55:27.530Z,6.05
2023-03-06T03:58:05.517Z,5.85
2023-03-06T04:00:38.972Z,5.72
2023-03-06T04:03:17.957Z,6.35
2023-03-06T04:05:53.894Z,5.87
2023-03-06T04:08:27.294Z,6.45
2023-03-06T04:11:00.196Z,6.35
2023-03-06T04:13:35.839Z,7.65
2023-03-06T04:16:09.953Z,7.22
2023-03-06T04:18:44.635Z,8.73
2023-03-06T04:21:17.516Z,5.28
2023-03-06T04:23:50.713Z,5.90
2023-03-06T04:26:23.563Z,5.78
2023-03-06T04:28:58.443Z,6.47
2023-03-06T04:34:04.412Z,6.43
2023-03-06T04:36:37.699Z,6.85
2023-03-06T04:39:15.368Z,7.30
2023-03-06T04:41:48.173Z,5.88
2023-03-06T04:44:22.840Z,7.35
2023-03-06T04:46:55.635Z,7.50
2023-03-06T04:49:28.496Z,7.05
2023-03-06T04:52:01.704Z,8.65
2023-03-06T04:54:34.503Z,6.65
2023-03-06T04:57:07.334Z,6.85
2023-03-06T04:59:41.526Z,5.35
2023-03-06T05:02:14.414Z,8.75
2023-03-06T05:04:47.216Z,7.45
2023-03-06T05:07:20.047Z,7.35
2023-03-06T05:09:53.245Z,7.65
2023-03-06T05:12:26.201Z,5.50
2023-03-06T05:15:00.317Z,8.77
2023-03-06T05:17:33.465Z,4.67
2023-03-06T05:20:08.443Z,7.47
2023-03-06T05:25:14.396Z,8.05
2023-03-06T05:27:47.567Z,8.52
2023-03-06T05:30:23.135Z,8.40
2023-03-06T05:32:55.963Z,8.07
2023-03-06T05:35:29.381Z,9.30
2023-03-06T05:38:03.115Z,8.23
2023-03-06T05:40:35.907Z,9.18
2023-03-06T05:43:09.124Z,9.43
2023-03-06T05:45:43.318Z,9.10
2023-03-06T05:48:16.150Z,8.23
2023-03-06T05:50:56.131Z,8.18
2023-03-06T05:53:29.269Z,9.05
2023-03-06T05:56:04.241Z,8.82
2023-03-06T06:01:13.293Z,10.10
2023-03-06T06:03:46.418Z,8.65
2023-03-06T06:06:19.439Z,9.23
2023-03-06T06:08:52.229Z,9.90
2023-03-06T06:11:25.197Z,8.80
2023-03-06T06:13:57.967Z,8.13
2023-03-06T06:16:32.427Z,8.55
2023-03-06T06:19:05.434Z,9.03
2023-03-06T06:21:38.248Z,8.05
2023-03-06T06:24:11.039Z,8.73
2023-03-06T06:26:44.209Z,9.57
2023-03-06T06:29:19.979Z,8.45
2023-03-06T06:31:55.205Z,7.43
2023-03-06T06:34:30.399Z,6.57
2023-03-06T06:37:03.356Z,6.60
2023-03-06T06:39:36.327Z,6.72
2023-03-06T06:42:28.597Z,7.03
2023-03-06T06:45:02.827Z,7.78
2023-03-06T06:47:40.905Z,6.65
2023-03-06T06:50:14.904Z,7.28
2023-03-06T06:52:47.870Z,7.72
2023-03-06T06:55:20.716Z,8.82
2023-03-06T06:57:53.521Z,9.00
2023-03-06T07:00:27.030Z,7.75
2023-03-06T07:03:01.540Z,5.85
2023-03-06T07:05:34.503Z,11.32
2023-03-06T07:08:07.515Z,11.25
2023-03-06T07:10:40.349Z,10.48
2023-03-06T07:13:13.406Z,9.73
2023-03-06T07:15:46.221Z,11.50
2023-03-06T07:18:20.347Z,11.38
2023-03-06T07:20:54.635Z,7.90
2023-03-06T07:23:27.490Z,14.85
2023-03-06T07:26:00.354Z,12.15
2023-03-06T07:28:46.178Z,11.00
2023-03-06T07:31:27.379Z,11.05
2023-03-06T07:34:04.728Z,9.27
2023-03-06T07:36:39.520Z,11.85
2023-03-06T07:39:12.290Z,10.60
2023-03-06T07:41:45.315Z,10.15
2023-03-06T07:44:18.242Z,10.77
2023-03-06T07:46:51.161Z,11.48
2023-03-06T07:49:25.437Z,12.10
2023-03-06T07:51:59.199Z,11.13
2023-03-06T07:54:32.588Z,11.40
2023-03-06T07:57:05.377Z,12.10
2023-03-06T07:59:38.158Z,12.00
2023-03-06T08:02:11.794Z,15.60
2023-03-06T08:04:46.119Z,12.90
2023-03-06T08:07:19.029Z,15.18
2023-03-06T08:09:52.078Z,14.63
2023-03-06T08:12:24.876Z,15.40
2023-03-06T08:14:57.785Z,13.85
2023-03-06T08:17:30.961Z,10.95
2023-03-06T08:20:06.601Z,15.50
2023-03-06T08:22:39.758Z,13.57
2023-03-06T08:25:14.252Z,12.05
2023-03-06T08:27:47.770Z,14.60
2023-03-06T08:30:21.456Z,15.55
2023-03-06T08:32:54.300Z,14.15
2023-03-06T08:35:28.478Z,11.55
2023-03-06T08:38:01.255Z,15.43
2023-03-06T08:40:34.046Z,13.25
2023-03-06T08:43:11.308Z,13.15
2023-03-06T08:45:45.321Z,14.27
2023-03-06T08:48:18.644Z,13.32
2023-03-06T08:50:53.524Z,11.70
2023-03-06T08:53:41.720Z,11.90
2023-03-06T08:56:16.633Z,8.82
2023-03-06T08:58:50.125Z,10.68
2023-03-06T09:01:24.674Z,10.98
2023-03-06T09:03:59.890Z,10.25
2023-03-06T09:06:36.401Z,9.38
2023-03-06T09:09:09.793Z,8.60
2023-03-06T09:11:42.719Z,9.00
2023-03-06T09:14:15.549Z,8.05
2023-03-06T09:16:49.878Z,7.78
2023-03-06T09:19:23.765Z,9.48
2023-03-06T09:22:00.899Z,9.27
2023-03-06T09:24:34.193Z,8.93
2023-03-06T09:27:07.605Z,7.25
2023-03-06T09:29:40.374Z,5.80
2023-03-06T09:32:13.215Z,8.40
2023-03-06T09:34:46.118Z,7.50
2023-03-06T09:37:20.525Z,8.18
2023-03-06T09:39:53.297Z,8.27
2023-03-06T09:42:28.185Z,6.90
2023-03-06T09:47:48.865Z,7.28
2023-03-06T09:50:33.264Z,6.38
2023-03-06T09:53:32.829Z,8.02
2023-03-06T09:56:12.662Z,9.20
2023-03-06T09:58:50.799Z,7.68
2023-03-06T10:01:27.915Z,6.65
2023-03-06T10:04:12.433Z,6.85
2023-03-06T10:06:49.728Z,7.70
2023-03-06T10:09:28.170Z,7.28
2023-03-06T10:12:06.544Z,4.53
2023-03-06T10:14:47.759Z,6.28
2023-03-06T10:17:23.904Z,6.30
2023-03-06T10:22:32.959Z,5.47
2023-03-06T10:25:13.577Z,7.47
2023-03-06T10:27:49.126Z,6.65
2023-03-06T10:30:32.573Z,6.50
2023-03-06T10:33:10.342Z,6.57
2023-03-06T10:35:48.291Z,6.70
2023-03-06T10:38:23.364Z,7.90
2023-03-06T10:43:42.622Z,7.70
2023-03-06T10:46:28.375Z,6.80
2023-03-06T10:49:02.586Z,6.88
2023-03-06T10:51:35.723Z,7.82
2023-03-06T10:54:20.518Z,6.13
2023-03-06T10:56:54.676Z,6.47
2023-03-06T10:59:29.333Z,5.80
2023-03-06T11:02:26.699Z,6.47
2023-03-06T11:05:02.077Z,6.05
2023-03-06T11:07:53.435Z,4.85
2023-03-06T11:10:27.273Z,6.47
2023-03-06T11:13:06.092Z,6.47
2023-03-06T11:15:38.897Z,6.80
2023-03-06T11:18:31.106Z,5.68
2023-03-06T11:21:08.871Z,13.48
2023-03-06T11:23:44.710Z,7.15
2023-03-06T11:26:29.741Z,4.55
2023-03-06T11:29:37.510Z,5.15
2023-03-06T11:32:17.343Z,4.20
2023-03-06T11:34:54.080Z,5.30
2023-03-06T11:37:43.265Z,3.42
2023-03-06T11:40:21.088Z,4.20
2023-03-06T11:43:04.252Z,4.10
2023-03-06T11:45:45.866Z,5.82
2023-03-06T11:48:27.829Z,4.53
2023-03-06T11:51:07.877Z,4.85
2023-03-06T11:53:42.699Z,5.50
2023-03-06T11:56:28.872Z,3.75
2023-03-06T11:59:24.793Z,4.00
2023-03-06T12:02:08.003Z,4.93
2023-03-06T12:04:53.708Z,3.92
2023-03-06T12:07:33.862Z,3.85
2023-03-06T12:10:16.684Z,3.90
2023-03-06T12:13:15.854Z,3.30
2023-03-06T12:16:05.379Z,3.72
2023-03-06T12:18:51.055Z,2.90
2023-03-06T12:21:34.700Z,2.78
2023-03-06T12:24:25.663Z,2.78
2023-03-06T12:27:13.393Z,2.67
2023-03-06T12:30:01.541Z,2.47
2023-03-06T12:32:47.422Z,3.40
2023-03-06T12:35:48.365Z,3.30
2023-03-06T12:39:00.639Z,2.80
2023-03-06T12:41:43.819Z,3.22
2023-03-06T12:44:39.047Z,3.75
2023-03-06T12:47:16.157Z,3.08
2023-03-06T12:49:54.188Z,2.88
2023-03-06T12:52:31.966Z,3.15
2023-03-06T12:55:08.565Z,2.80
2023-03-06T12:57:45.555Z,3.13
2023-03-06T13:01:03.719Z,3.08
2023-03-06T13:03:51.081Z,2.70
2023-03-06T13:06:49.910Z,3.20
2023-03-06T13:09:35.460Z,2.60
2023-03-06T13:12:32.915Z,3.22
2023-03-06T13:15:30.936Z,3.05
2023-03-06T13:18:26.504Z,2.97
2023-03-06T13:20:59.875Z,3.13
2023-03-06T13:23:51.562Z,1.95
2023-03-06T13:27:01.003Z,1.70
2023-03-06T13:30:06.127Z,1.30
2023-03-06T13:32:39.031Z,5.87
2023-03-06T13:35:46.844Z,1.50
2023-03-06T13:38:31.663Z,1.30
2023-03-06T13:41:43.628Z,1.40
2023-03-06T13:44:52.178Z,1.50
2023-03-06T13:48:15.606Z,1.45
2023-03-06T13:50:45.259Z,1.40
2023-03-06T13:54:09.109Z,1.58
2023-03-06T13:57:20.358Z,1.38
2023-03-06T14:00:24.187Z,2.15
2023-03-06T14:03:36.033Z,1.85
2023-03-06T14:06:42.305Z,1.10
2023-03-06T14:09:24.860Z,1.30
2023-03-06T14:12:01.506Z,1.10
2023-03-06T14:14:43.406Z,1.40
2023-03-06T14:17:26.286Z,1.10
2023-03-06T14:20:02.584Z,0.98
2023-03-06T14:22:35.428Z,0.88
2023-03-06T14:25:17.054Z,0.80
2023-03-06T14:27:51.523Z,0.90
2023-03-06T14:30:26.933Z,0.90
2023-03-06T14:33:01.138Z,0.95
2023-03-06T14:35:34.241Z,1.00
2023-03-06T14:38:08.014Z,0.90
2023-03-06T14:40:44.761Z,1.08
2023-03-06T14:43:21.429Z,0.90
2023-03-06T14:45:57.200Z,1.15
2023-03-06T14:48:41.164Z,0.98
2023-03-06T14:51:19.949Z,2.38
2023-03-06T14:53:54.921Z,1.00
2023-03-06T14:56:28.690Z,0.90
2023-03-06T14:59:04.100Z,1.20
2023-03-06T15:01:39.610Z,1.00
2023-03-06T15:04:25.064Z,1.10
2023-03-06T15:07:00.148Z,1.10
2023-03-06T15:09:35.795Z,0.90
2023-03-06T15:12:30.502Z,0.77
2023-03-06T15:15:05.712Z,0.93
2023-03-06T15:17:41.076Z,1.00
2023-03-06T15:20:42.281Z,0.75
2023-03-06T15:23:20.837Z,0.80
2023-03-06T15:25:57.119Z,1.10
2023-03-06T15:28:35.921Z,0.60
2023-03-06T15:31:21.650Z,1.00
2023-03-06T15:36:37.236Z,1.13
2023-03-06T15:39:47.493Z,1.20
2023-03-06T15:42:22.302Z,2.22
2023-03-06T15:47:28.940Z,0.70
2023-03-06T15:50:01.824Z,0.40
2023-03-06T15:52:36.915Z,0.73
2023-03-06T15:55:12.145Z,0.52
2023-03-06T15:57:50.173Z,0.70
2023-03-06T16:00:28.321Z,0.50
2023-03-06T16:03:02.858Z,0.73
2023-03-06T16:05:35.723Z,0.80
2023-03-06T16:08:10.824Z,1.33
2023-03-06T16:10:45.339Z,0.80
2023-03-06T16:13:26.713Z,0.95
2023-03-06T16:15:59.537Z,1.00
2023-03-06T16:18:32.311Z,1.30
2023-03-06T16:21:06.561Z,1.05
2023-03-06T16:23:41.138Z,1.05
2023-03-06T16:26:20.386Z,1.20
2023-03-06T16:28:53.212Z,1.52
2023-03-06T16:31:26.002Z,0.98
2023-03-06T16:33:58.902Z,1.02
2023-03-06T16:36:32.464Z,1.40
2023-03-06T16:39:07.365Z,2.08
2023-03-06T16:41:40.235Z,1.55
2023-03-06T16:44:13.428Z,1.77
2023-03-06T16:46:48.408Z,1.70
2023-03-06T16:49:23.573Z,1.80
2023-03-06T16:51:56.753Z,2.25
2023-03-06T16:54:30.937Z,4.10
2023-03-06T16:57:03.853Z,4.53
2023-03-06T16:59:36.970Z,4.75
2023-03-06T17:02:10.845Z,4.30
2023-03-06T17:04:43.742Z,5.78
2023-03-06T17:07:16.556Z,6.88
2023-03-06T17:09:50.816Z,5.97
2023-03-06T17:12:23.671Z,6.90
2023-03-06T17:14:56.667Z,7.68
2023-03-06T17:17:29.690Z,5.97
2023-03-06T17:20:03.202Z,6.53
2023-03-06T17:22:36.931Z,5.97
2023-03-06T17:25:11.519Z,4.88
2023-03-06T17:27:44.430Z,4.22
2023-03-06T17:30:17.554Z,5.10
2023-03-06T17:32:50.771Z,5.43
2023-03-06T17:35:23.566Z,4.20
2023-03-06T17:37:58.002Z,5.72
2023-03-06T17:40:34.521Z,5.00
2023-03-06T17:43:07.411Z,5.85
2023-03-06T17:45:40.306Z,6.45
2023-03-06T17:48:13.097Z,6.05
2023-03-06T17:50:53.900Z,5.28
2023-03-06T17:53:27.571Z,5.38
2023-03-06T17:56:03.736Z,6.80
2023-03-06T17:58:36.907Z,5.88
2023-03-06T18:01:13.627Z,7.13
2023-03-06T18:03:48.478Z,7.65
2023-03-06T18:06:22.147Z,7.40
2023-03-06T18:08:58.353Z,8.00
2023-03-06T18:11:32.979Z,9.02
2023-03-06T18:14:05.856Z,10.25
2023-03-06T18:16:38.744Z,11.10
2023-03-06T18:19:12.222Z,10.68
2023-03-06T18:21:47.206Z,12.38
2023-03-06T18:24:20.047Z,14.60
2023-03-06T18:26:54.267Z,12.75
2023-03-06T18:29:27.096Z,12.70
2023-03-06T18:32:01.897Z,12.93
2023-03-06T18:34:35.079Z,12.82
2023-03-06T18:37:07.934Z,10.85
2023-03-06T18:39:40.895Z,13.25
2023-03-06T18:42:15.038Z,12.15
2023-03-06T18:44:48.786Z,11.03
2023-03-06T18:47:22.207Z,13.30
2023-03-06T18:49:55.993Z,14.70
2023-03-06T18:52:28.794Z,14.98
2023-03-06T18:55:01.850Z,15.00
2023-03-06T18:57:36.136Z,14.77
2023-03-06T19:00:10.042Z,14.30
2023-03-06T19:02:42.827Z,14.40
2023-03-06T19:05:15.662Z,13.75
2023-03-06T19:07:48.465Z,12.18
2023-03-06T19:10:21.293Z,15.57
2023-03-06T19:12:55.430Z,14.95
2023-03-06T19:15:28.207Z,15.97
2023-03-06T19:18:01.575Z,14.55
2023-03-06T19:20:34.658Z,16.90
2023-03-06T19:23:08.242Z,15.07
2023-03-06T19:25:41.319Z,15.90
2023-03-06T19:28:15.926Z,12.82
2023-03-06T19:30:48.714Z,12.27
2023-03-06T19:33:21.627Z,15.27
2023-03-06T19:35:54.504Z,16.92
2023-03-06T19:38:27.395Z,17.05
2023-03-06T19:41:00.941Z,14.25
2023-03-06T19:43:35.383Z,13.27
2023-03-06T19:46:12.541Z,16.27
2023-03-06T19:48:45.686Z,15.68
2023-03-06T19:51:18.560Z,17.52
2023-03-06T19:53:51.475Z,15.52
2023-03-06T19:56:26.712Z,17.10
2023-03-06T19:59:00.967Z,16.85
2023-03-06T20:01:34.363Z,17.88
2023-03-06T20:04:07.331Z,14.80
2023-03-06T20:06:40.628Z,17.65
2023-03-06T20:09:13.654Z,13.45
2023-03-06T20:11:46.461Z,19.17
2023-03-06T20:14:20.994Z,12.77
2023-03-06T20:16:54.218Z,11.10
2023-03-06T20:19:27.034Z,17.42
2023-03-06T20:21:59.869Z,18.05
2023-03-06T20:24:32.837Z,15.93
2023-03-06T20:27:06.027Z,16.80
2023-03-06T20:29:43.207Z,15.40
2023-03-06T20:32:16.393Z,17.60
2023-03-06T20:34:49.259Z,16.13
2023-03-06T20:37:22.142Z,17.52
2023-03-06T20:39:55.054Z,14.75
2023-03-06T20:42:28.107Z,14.10
2023-03-06T20:45:02.689Z,15.30
2023-03-06T20:47:35.661Z,17.00
2023-03-06T20:50:09.226Z,14.25
2023-03-06T20:52:42.381Z,12.43
2023-03-06T20:55:15.386Z,15.18
2023-03-06T20:57:50.174Z,14.15
2023-03-06T21:00:24.311Z,15.30
2023-03-06T21:02:57.182Z,12.35
2023-03-06T21:05:29.982Z,13.18
2023-03-06T21:08:02.806Z,14.45
2023-03-06T21:10:37.812Z,11.82
2023-03-06T21:15:47.730Z,11.95
2023-03-06T21:18:21.329Z,13.93
2023-03-06T21:20:54.283Z,14.43
2023-03-06T21:23:27.251Z,14.07
2023-03-06T21:26:00.667Z,12.80
2023-03-06T21:28:33.688Z,12.43
2023-03-06T21:31:09.432Z,14.90
2023-03-06T21:33:42.675Z,16.17
2023-03-06T21:36:16.121Z,13.48
2023-03-06T21:38:50.060Z,14.77
2023-03-06T21:41:25.062Z,13.13
2023-03-06T21:46:33.346Z,13.02
2023-03-06T21:49:06.738Z,13.40
2023-03-06T21:51:39.719Z,15.10
2023-03-06T21:54:12.994Z,16.15
2023-03-06T21:56:45.869Z,16.48
2023-03-06T21:59:18.669Z,14.93
2023-03-06T22:01:52.921Z,15.98
2023-03-06T22:04:25.872Z,15.75
2023-03-06T22:06:58.672Z,16.98
2023-03-06T22:09:31.466Z,15.10
2023-03-06T22:12:04.710Z,18.88
2023-03-06T22:14:37.896Z,15.38
2023-03-06T22:17:12.037Z,16.27
2023-03-06T22:19:44.821Z,16.07
2023-03-06T22:22:17.699Z,17.75
2023-03-06T22:24:50.459Z,18.85
2023-03-06T22:27:23.420Z,11.10
2023-03-06T22:29:56.244Z,14.95
2023-03-06T22:32:30.417Z,16.65
2023-03-06T22:35:03.463Z,19.65
2023-03-06T22:37:36.316Z,16.83
2023-03-06T22:40:10.534Z,18.88
2023-03-06T22:42:43.411Z,17.63
2023-03-06T22:45:16.638Z,16.88
2023-03-06T22:47:53.390Z,17.42
2023-03-06T22:50:28.092Z,16.13
2023-03-06T22:53:01.107Z,17.38
2023-03-06T22:55:35.771Z,12.32
2023-03-06T22:58:08.561Z,18.95
2023-03-06T23:00:41.391Z,18.83
2023-03-06T23:03:15.729Z,14.98
2023-03-06T23:05:48.483Z,19.73
2023-03-06T23:08:21.876Z,18.20
2023-03-06T23:10:54.686Z,18.35
2023-03-06T23:13:46.670Z,23.13
2023-03-06T23:16:38.412Z,16.00
2023-03-06T23:19:31.725Z,22.17
2023-03-06T23:22:22.836Z,22.58
2023-03-06T23:25:14.306Z,18.73
2023-03-06T23:27:50.096Z,23.60
2023-03-06T23:30:24.357Z,22.45
2023-03-06T23:32:57.478Z,23.83
2023-03-06T23:35:33.951Z,26.65
2023-03-06T23:38:07.134Z,25.30
2023-03-06T23:40:40.674Z,26.25
2023-03-06T23:43:13.514Z,20.30
2023-03-06T23:45:53.525Z,26.55
2023-03-06T23:48:27.677Z,17.23
2023-03-06T23:51:05.240Z,24.20
2023-03-06T23:53:38.010Z,31.48
2023-03-06T23:56:11.120Z,29.60
2023-03-06T23:58:45.370Z,20.70
